createdAt,value
2023-01-04T00:07:48.004Z,100.00
2023-01-04T00:17:50.724Z,100.00
2023-01-04T00:27:55.895Z,100.00
2023-01-04T00:38:02.289Z,100.00
2023-01-04T00:48:04.577Z,100.00
2023-01-04T01:08:36.930Z,100.00
2023-01-04T01:18:46.058Z,100.00
2023-01-04T01:28:49.675Z,100.00
2023-01-04T01:38:51.797Z,100.00
2023-01-04T01:49:04.143Z,100.00
2023-01-04T01:59:09.712Z,100.00
2023-01-04T02:09:15.517Z,100.00
2023-01-04T02:19:36.056Z,100.00
2023-01-04T02:30:08.283Z,100.00
2023-01-04T02:40:19.156Z,100.00
2023-01-04T02:50:33.602Z,100.00
2023-01-04T03:01:13.432Z,100.00
2023-01-04T03:11:36.789Z,100.00
2023-01-04T03:21:44.399Z,100.00
2023-01-04T03:32:21.167Z,100.00
2023-01-04T03:42:52.333Z,100.00
2023-01-04T03:52:56.809Z,100.00
2023-01-04T04:03:07.562Z,100.00
2023-01-04T04:13:09.537Z,100.00
2023-01-04T04:23:11.348Z,100.00
2023-01-04T04:33:13.231Z,100.00
2023-01-04T04:43:15.150Z,100.00
2023-01-04T04:53:19.662Z,100.00
2023-01-04T05:03:22.451Z,100.00
2023-01-04T05:13:24.505Z,100.00
2023-01-04T05:23:27.319Z,100.00
2023-01-04T05:33:32.573Z,100.00
2023-01-04T05:43:36.332Z,100.00
2023-01-04T05:53:39.090Z,100.00
2023-01-04T06:03:41.938Z,100.00
2023-01-04T06:13:49.926Z,100.00
2023-01-04T06:23:53.202Z,100.00
2023-01-04T06:33:56.435Z,100.00
2023-01-04T06:43:58.487Z,100.00
2023-01-04T06:54:00.190Z,100.00
2023-01-04T07:04:02.154Z,100.00
2023-01-04T07:14:05.792Z,100.00
2023-01-04T07:24:07.485Z,100.00
2023-01-04T07:34:09.423Z,100.00
2023-01-04T07:44:12.208Z,100.00
2023-01-04T07:54:15.518Z,100.00
2023-01-04T08:04:19.009Z,100.00
2023-01-04T08:14:23.363Z,100.00
2023-01-04T08:24:25.146Z,100.00
2023-01-04T08:34:26.866Z,100.00
2023-01-04T08:44:36.263Z,100.00
2023-01-04T08:54:37.968Z,100.00
2023-01-04T09:04:40.041Z,100.00
2023-01-04T09:14:42.108Z,100.00
2023-01-04T09:24:45.938Z,87.13
2023-01-04T09:34:56.721Z,64.32
2023-01-04T09:45:24.821Z,53.70
2023-01-04T09:55:39.387Z,54.47
2023-01-04T10:05:54.862Z,48.96
2023-01-04T10:16:15.127Z,42.63
2023-01-04T10:26:37.642Z,42.54
2023-01-04T10:36:42.029Z,38.75
2023-01-04T10:46:50.008Z,38.09
2023-01-04T10:57:12.562Z,36.95
2023-01-04T11:07:23.938Z,40.40
2023-01-04T11:17:26.269Z,40.11
2023-01-04T11:27:32.743Z,39.21
2023-01-04T11:37:41.634Z,42.19
2023-01-04T11:47:55.868Z,36.51
2023-01-04T11:58:28.114Z,31.81
2023-01-04T12:08:33.281Z,32.45
2023-01-04T12:18:40.073Z,31.93
2023-01-04T12:29:09.703Z,30.52
2023-01-04T12:39:23.389Z,40.16
2023-01-04T12:49:29.177Z,47.64
2023-01-04T12:59:38.817Z,47.26
2023-01-04T13:09:51.753Z,48.21
2023-01-04T13:19:54.831Z,43.26
2023-01-04T13:29:56.687Z,38.38
2023-01-04T13:40:29.156Z,46.42
2023-01-04T13:50:49.734Z,59.44
2023-01-04T14:00:58.586Z,85.92
2023-01-04T14:11:51.075Z,90.41
2023-01-04T14:21:52.948Z,100.00
2023-01-04T14:31:54.671Z,100.00
2023-01-04T14:41:57.774Z,100.00
2023-01-04T14:52:02.712Z,100.00
2023-01-04T15:02:06.905Z,100.00
2023-01-04T15:12:08.845Z,100.00
2023-01-04T15:22:20.493Z,100.00
2023-01-04T15:32:23.765Z,100.00
2023-01-04T15:42:44.489Z,100.00
2023-01-04T15:52:46.315Z,100.00
2023-01-04T16:02:48.344Z,100.00
2023-01-04T16:12:57.175Z,100.00
2023-01-04T16:23:02.184Z,100.00
2023-01-04T16:33:06.324Z,100.00
2023-01-04T16:43:17.428Z,100.00
2023-01-04T16:53:20.100Z,100.00
2023-01-04T17:03:25.255Z,100.00
2023-01-04T17:13:30.489Z,100.00
2023-01-04T17:23:34.411Z,100.00
2023-01-04T17:33:38.741Z,100.00
2023-01-04T17:43:44.672Z,100.00
2023-01-04T17:53:48.848Z,100.00
2023-01-04T18:03:54.051Z,100.00
2023-01-04T18:13:57.667Z,100.00
2023-01-04T18:34:27.293Z,100.00
2023-01-04T18:44:34.402Z,100.00
2023-01-04T18:54:39.138Z,100.00
2023-01-04T19:04:41.442Z,100.00
2023-01-04T19:14:44.101Z,100.00
2023-01-04T19:24:53.053Z,100.00
2023-01-04T19:34:55.646Z,100.00
2023-01-04T19:44:59.237Z,100.00
2023-01-04T19:55:03.532Z,100.00
2023-01-04T20:05:10.394Z,100.00
2023-01-04T20:15:15.913Z,100.00
2023-01-04T20:25:18.873Z,100.00
2023-01-04T20:35:25.185Z,100.00
2023-01-04T20:45:29.055Z,100.00
2023-01-04T20:55:38.942Z,100.00
2023-01-04T21:05:44.361Z,100.00
2023-01-04T21:15:46.744Z,100.00
2023-01-04T21:25:52.666Z,100.00
2023-01-04T21:35:57.352Z,100.00
2023-01-04T21:46:08.157Z,100.00
2023-01-04T21:56:16.152Z,100.00
2023-01-04T22:06:20.784Z,100.00
2023-01-04T22:16:25.401Z,100.00
2023-01-04T22:26:28.435Z,100.00
2023-01-04T22:36:30.175Z,100.00
2023-01-04T22:46:34.093Z,100.00
2023-01-04T22:56:35.975Z,100.00
2023-01-04T23:06:39.341Z,100.00
2023-01-04T23:16:41.440Z,100.00
2023-01-04T23:26:47.292Z,100.00
2023-01-04T23:36:49.740Z,100.00
2023-01-04T23:57:05.782Z,100.00
